createdAt,value
2019-05-18T00:02:20.723Z,99439.00
2019-05-18T00:04:48.596Z,99436.00
2019-05-18T00:07:16.560Z,99437.00
2019-05-18T00:09:44.432Z,99440.00
2019-05-18T00:12:12.461Z,99449.00
2019-05-18T00:14:40.419Z,99446.00
2019-05-18T00:17:23.195Z,99446.00
2019-05-18T00:19:38.204Z,99447.00
2019-05-18T00:22:06.078Z,99443.00
2019-05-18T00:24:33.999Z,99437.00
2019-05-18T00:27:02.027Z,99446.00
2019-05-18T00:29:30.005Z,99444.00
2019-05-18T00:31:57.963Z,99440.00
2019-05-18T00:34:25.916Z,99437.00
2019-05-18T00:36:53.797Z,99430.00
2019-05-18T00:39:21.731Z,99427.00
2019-05-18T00:41:49.675Z,99423.00
2019-05-18T00:44:17.672Z,99414.00
2019-05-18T00:46:45.622Z,99418.00
2019-05-18T00:49:14.153Z,99421.00
2019-05-18T00:51:42.475Z,99415.00
2019-05-18T00:54:10.438Z,99414.00
2019-05-18T00:56:38.335Z,99414.00
2019-05-18T00:59:06.367Z,99417.00
2019-05-18T01:01:34.418Z,99419.00
2019-05-18T01:04:02.485Z,99423.00
2019-05-18T01:06:30.357Z,99418.00
2019-05-18T01:09:11.998Z,99419.00
2019-05-18T01:11:39.861Z,99412.00
2019-05-18T01:14:07.849Z,99416.00
2019-05-18T01:16:41.442Z,99412.00
2019-05-18T01:19:09.360Z,99415.00
2019-05-18T01:21:37.273Z,99414.00
2019-05-18T01:24:06.198Z,99406.00
2019-05-18T01:26:34.120Z,99404.00
2019-05-18T01:29:04.420Z,99406.00
2019-05-18T01:31:32.527Z,99399.00
2019-05-18T01:34:00.495Z,99406.00
2019-05-18T01:36:28.384Z,99408.00
2019-05-18T01:38:56.264Z,99404.00
2019-05-18T01:41:24.116Z,99414.00
2019-05-18T01:43:51.997Z,99412.00
2019-05-18T01:46:19.882Z,99416.00
2019-05-18T01:48:47.760Z,99421.00
2019-05-18T01:51:15.668Z,99418.00
2019-05-18T01:53:43.584Z,99418.00
2019-05-18T01:56:11.498Z,99405.00
2019-05-18T01:58:39.377Z,99415.00
2019-05-18T02:01:07.224Z,99411.00
2019-05-18T02:03:35.119Z,99411.00
2019-05-18T02:06:03.001Z,99407.00
2019-05-18T02:08:30.900Z,99408.00
2019-05-18T02:10:58.818Z,99414.00
2019-05-18T02:13:29.220Z,99413.00
2019-05-18T02:16:00.324Z,99417.00
2019-05-18T02:18:29.390Z,99401.00
2019-05-18T02:20:57.940Z,99415.00
2019-05-18T02:23:27.002Z,99411.00
2019-05-18T02:25:54.932Z,99412.00
2019-05-18T02:28:22.795Z,99413.00
2019-05-18T02:30:50.669Z,99406.00
2019-05-18T02:33:18.548Z,99412.00
2019-05-18T02:35:46.394Z,99410.00
2019-05-18T02:38:15.279Z,99413.00
2019-05-18T02:40:43.978Z,99408.00
2019-05-18T02:43:11.834Z,99402.00
2019-05-18T02:45:40.024Z,99403.00
2019-05-18T02:48:07.812Z,99396.00
2019-05-18T02:50:35.710Z,99397.00
2019-05-18T02:53:03.927Z,99394.00
2019-05-18T02:55:31.969Z,99392.00
2019-05-18T02:57:59.783Z,99392.00
2019-05-18T03:00:27.635Z,99393.00
2019-05-18T03:02:55.513Z,99388.00
2019-05-18T03:05:23.889Z,99379.00
2019-05-18T03:07:51.743Z,99385.00
2019-05-18T03:10:19.799Z,99375.00
2019-05-18T03:12:47.894Z,99378.00
2019-05-18T03:15:16.163Z,99370.00
2019-05-18T03:17:44.017Z,99372.00
2019-05-18T03:20:12.084Z,99376.00
2019-05-18T03:22:39.960Z,99369.00
2019-05-18T03:25:08.161Z,99378.00
2019-05-18T03:27:36.178Z,99371.00
2019-05-18T03:30:04.200Z,99368.00
2019-05-18T03:32:32.094Z,99373.00
2019-05-18T03:34:59.946Z,99371.00
2019-05-18T03:37:27.838Z,99366.00
2019-05-18T03:39:55.838Z,99375.00
2019-05-18T03:42:23.703Z,99384.00
2019-05-18T03:44:51.649Z,99382.00
2019-05-18T03:47:19.586Z,99377.00
2019-05-18T03:49:47.485Z,99383.00
2019-05-18T03:52:15.390Z,99383.00
2019-05-18T03:54:43.278Z,99381.00
2019-05-18T03:57:11.123Z,99391.00
2019-05-18T03:59:39.008Z,99381.00
2019-05-18T04:02:06.867Z,99388.00
2019-05-18T04:04:34.731Z,99382.00
2019-05-18T04:07:02.552Z,99379.00
2019-05-18T04:09:30.456Z,99381.00
2019-05-18T04:11:58.345Z,99380.00
2019-05-18T04:14:26.218Z,99387.00
2019-05-18T04:16:56.502Z,99382.00
2019-05-18T04:19:42.649Z,99389.00
2019-05-18T04:22:14.442Z,99381.00
2019-05-18T04:24:42.326Z,99380.00
2019-05-18T04:27:10.271Z,99387.00
2019-05-18T04:29:39.623Z,99388.00
2019-05-18T04:32:07.763Z,99383.00
2019-05-18T04:34:35.636Z,99395.00
2019-05-18T04:37:03.477Z,99398.00
2019-05-18T04:39:31.442Z,99400.00
2019-05-18T04:41:59.392Z,99407.00
2019-05-18T04:44:27.249Z,99401.00
2019-05-18T04:46:55.140Z,99400.00
2019-05-18T04:49:22.992Z,99405.00
2019-05-18T04:51:50.857Z,99401.00
2019-05-18T04:54:18.778Z,99413.00
2019-05-18T04:56:46.776Z,99416.00
2019-05-18T04:59:14.665Z,99413.00
2019-05-18T05:01:42.710Z,99421.00
2019-05-18T05:04:10.625Z,99425.00
2019-05-18T05:06:38.573Z,99425.00
2019-05-18T05:09:07.352Z,99419.00
2019-05-18T05:11:35.354Z,99427.00
2019-05-18T05:14:03.927Z,99426.00
2019-05-18T05:16:31.891Z,99427.00
2019-05-18T05:18:59.853Z,99436.00
2019-05-18T05:21:27.784Z,99426.00
2019-05-18T05:23:55.628Z,99422.00
2019-05-18T05:26:23.677Z,99432.00
2019-05-18T05:28:51.565Z,99434.00
2019-05-18T05:31:19.559Z,99427.00
2019-05-18T05:33:47.458Z,99427.00
2019-05-18T05:36:15.485Z,99421.00
2019-05-18T05:38:43.400Z,99423.00
2019-05-18T05:41:16.527Z,99426.00
2019-05-18T05:43:41.166Z,99418.00
2019-05-18T05:46:09.098Z,99422.00
2019-05-18T05:48:37.000Z,99414.00
2019-05-18T05:51:04.874Z,99418.00
2019-05-18T05:53:33.074Z,99419.00
2019-05-18T05:56:00.918Z,99424.00
2019-05-18T05:58:28.897Z,99417.00
2019-05-18T06:00:56.740Z,99420.00
2019-05-18T06:03:24.608Z,99419.00
2019-05-18T06:05:52.558Z,99426.00
2019-05-18T06:08:20.936Z,99436.00
2019-05-18T06:10:48.911Z,99434.00
2019-05-18T06:13:16.930Z,99428.00
2019-05-18T06:15:44.778Z,99425.00
2019-05-18T06:18:12.655Z,99434.00
2019-05-18T06:20:51.025Z,99443.00
2019-05-18T06:23:10.522Z,99443.00
2019-05-18T06:25:41.683Z,99435.00
2019-05-18T06:28:09.666Z,99439.00
2019-05-18T06:30:37.593Z,99436.00
2019-05-18T06:33:05.465Z,99442.00
2019-05-18T06:35:33.334Z,99452.00
2019-05-18T06:38:01.233Z,99441.00
2019-05-18T06:40:29.218Z,99453.00
2019-05-18T06:42:57.180Z,99446.00
2019-05-18T06:45:25.089Z,99439.00
2019-05-18T06:47:52.974Z,99448.00
2019-05-18T06:50:29.041Z,99438.00
2019-05-18T06:52:57.957Z,99349.00
2019-05-18T06:55:26.546Z,99439.00
2019-05-18T06:57:56.748Z,99437.00
2019-05-18T07:00:24.806Z,99436.00
2019-05-18T07:02:52.684Z,99431.00
2019-05-18T07:05:21.860Z,99468.00
2019-05-18T07:07:50.562Z,99431.00
2019-05-18T07:10:18.429Z,99426.00
2019-05-18T07:12:47.361Z,99433.00
2019-05-18T07:15:16.185Z,99435.00
2019-05-18T07:17:44.596Z,99422.00
2019-05-18T07:20:15.907Z,99431.00
2019-05-18T07:22:43.972Z,99431.00
2019-05-18T07:25:12.571Z,99426.00
2019-05-18T07:27:40.569Z,99435.00
2019-05-18T07:30:09.704Z,99433.00
2019-05-18T07:32:37.753Z,99440.00
2019-05-18T07:35:06.487Z,99436.00
2019-05-18T07:37:34.604Z,99433.00
2019-05-18T07:40:02.689Z,99437.00
2019-05-18T07:42:30.685Z,99442.00
2019-05-18T07:44:58.631Z,99442.00
2019-05-18T07:47:26.670Z,99439.00
2019-05-18T07:49:55.265Z,99438.00
2019-05-18T07:52:23.363Z,99433.00
2019-05-18T07:54:52.361Z,99436.00
2019-05-18T07:57:20.468Z,99428.00
2019-05-18T07:59:49.831Z,99423.00
2019-05-18T08:02:17.974Z,99430.00
2019-05-18T08:04:45.991Z,99430.00
2019-05-18T08:07:14.056Z,99425.00
2019-05-18T08:09:42.038Z,99424.00
2019-05-18T08:12:10.030Z,99423.00
2019-05-18T08:14:38.069Z,99425.00
2019-05-18T08:17:06.179Z,99423.00
2019-05-18T08:19:34.155Z,99432.00
2019-05-18T08:22:02.342Z,99438.00
2019-05-18T08:24:30.328Z,99439.00
2019-05-18T08:27:01.826Z,99433.00
2019-05-18T08:29:28.324Z,99440.00
2019-05-18T08:31:56.396Z,99428.00
2019-05-18T08:34:24.436Z,99435.00
2019-05-18T08:36:53.481Z,99430.00
2019-05-18T08:39:21.655Z,99432.00
2019-05-18T08:41:49.725Z,99427.00
2019-05-18T08:44:17.765Z,99422.00
2019-05-18T08:46:45.713Z,99427.00
2019-05-18T08:49:13.798Z,99420.00
2019-05-18T08:51:42.937Z,99424.00
2019-05-18T08:54:11.975Z,99426.00
2019-05-18T08:56:40.024Z,99423.00
2019-05-18T08:59:08.275Z,99421.00
2019-05-18T09:01:36.293Z,99419.00
2019-05-18T09:04:04.463Z,99424.00
2019-05-18T09:06:32.566Z,99424.00
2019-05-18T09:09:00.757Z,99418.00
2019-05-18T09:11:28.996Z,99420.00
2019-05-18T09:13:57.076Z,99414.00
2019-05-18T09:16:25.575Z,99415.00
2019-05-18T09:18:53.730Z,99412.00
2019-05-18T09:21:21.845Z,99411.00
2019-05-18T09:23:50.032Z,99407.00
2019-05-18T09:26:18.239Z,99408.00
2019-05-18T09:28:48.224Z,99409.00
2019-05-18T09:31:16.299Z,99413.00
2019-05-18T09:33:44.309Z,99409.00
2019-05-18T09:36:12.413Z,99410.00
2019-05-18T09:38:40.400Z,99411.00
2019-05-18T09:41:08.492Z,99403.00
2019-05-18T09:43:36.657Z,99406.00
2019-05-18T09:46:04.749Z,99408.00
2019-05-18T09:48:32.946Z,99399.00
2019-05-18T09:51:01.069Z,99394.00
2019-05-18T09:53:30.151Z,99398.00
2019-05-18T09:55:58.233Z,99402.00
2019-05-18T09:58:26.252Z,99392.00
2019-05-18T10:00:54.402Z,99396.00
2019-05-18T10:03:22.348Z,99397.00
2019-05-18T10:05:50.310Z,99407.00
2019-05-18T10:08:18.334Z,99387.00
2019-05-18T10:10:51.035Z,99387.00
2019-05-18T10:13:18.994Z,99395.00
2019-05-18T10:15:46.959Z,99395.00
2019-05-18T10:18:14.931Z,99404.00
2019-05-18T10:20:42.951Z,99402.00
2019-05-18T10:23:13.689Z,99392.00
2019-05-18T10:25:40.716Z,99395.00
2019-05-18T10:28:08.686Z,99395.00
2019-05-18T10:30:36.698Z,99379.00
2019-05-18T10:33:04.868Z,99393.00
2019-05-18T10:35:32.819Z,99377.00
2019-05-18T10:38:00.824Z,99379.00
2019-05-18T10:40:28.748Z,99382.00
2019-05-18T10:42:56.870Z,99382.00
2019-05-18T10:45:24.818Z,99384.00
2019-05-18T10:47:52.729Z,99375.00
2019-05-18T10:50:21.716Z,99371.00
2019-05-18T10:52:49.692Z,99380.00
2019-05-18T10:55:17.861Z,99361.00
2019-05-18T10:57:45.885Z,99365.00
2019-05-18T11:00:14.623Z,99358.00
2019-05-18T11:02:42.647Z,99361.00
2019-05-18T11:05:11.250Z,99359.00
2019-05-18T11:07:39.145Z,99358.00
2019-05-18T11:10:08.126Z,99356.00
2019-05-18T11:12:36.108Z,99363.00
2019-05-18T11:15:04.607Z,99362.00
2019-05-18T11:17:32.793Z,99351.00
2019-05-18T11:20:00.913Z,99353.00
2019-05-18T11:22:28.930Z,99351.00
2019-05-18T11:24:56.948Z,99355.00
2019-05-18T11:27:24.956Z,99352.00
2019-05-18T11:29:53.508Z,99350.00
2019-05-18T11:32:21.492Z,99345.00
2019-05-18T11:34:49.479Z,99349.00
2019-05-18T11:37:17.538Z,99353.00
2019-05-18T11:39:45.529Z,99352.00
2019-05-18T11:42:16.091Z,99336.00
2019-05-18T11:44:44.280Z,99345.00
2019-05-18T11:47:12.316Z,99340.00
2019-05-18T11:49:40.385Z,99332.00
2019-05-18T11:52:08.975Z,99341.00
2019-05-18T11:54:37.661Z,99333.00
2019-05-18T11:57:05.930Z,99340.00
2019-05-18T11:59:34.793Z,99337.00
2019-05-18T12:02:04.562Z,99331.00
2019-05-18T12:04:32.717Z,99327.00
2019-05-18T12:07:18.080Z,99317.00
2019-05-18T12:09:46.075Z,99330.00
2019-05-18T12:12:14.121Z,99331.00
2019-05-18T12:14:42.147Z,99316.00
2019-05-18T12:17:10.150Z,99318.00
2019-05-18T12:19:38.105Z,99326.00
2019-05-18T12:22:06.376Z,99322.00
2019-05-18T12:24:34.482Z,99314.00
2019-05-18T12:27:02.531Z,99325.00
2019-05-18T12:29:30.553Z,99321.00
2019-05-18T12:31:58.820Z,99322.00
2019-05-18T12:34:27.029Z,99322.00
2019-05-18T12:36:55.155Z,99320.00
2019-05-18T12:39:23.244Z,99266.00
2019-05-18T12:41:51.252Z,99326.00
2019-05-18T12:44:19.241Z,99316.00
2019-05-18T12:46:47.548Z,99322.00
2019-05-18T12:49:15.790Z,99318.00
2019-05-18T12:51:43.795Z,99312.00
2019-05-18T12:54:11.752Z,99308.00
2019-05-18T12:56:40.140Z,99310.00
2019-05-18T12:59:08.326Z,99304.00
2019-05-18T13:01:36.374Z,99316.00
2019-05-18T13:04:04.371Z,99311.00
2019-05-18T13:06:32.383Z,99299.00
2019-05-18T13:09:00.432Z,99304.00
2019-05-18T13:11:28.387Z,99297.00
2019-05-18T13:13:56.374Z,99297.00
2019-05-18T13:16:24.356Z,99285.00
2019-05-18T13:18:52.265Z,99286.00
2019-05-18T13:21:20.212Z,99282.00
2019-05-18T13:23:48.188Z,99287.00
2019-05-18T13:26:16.148Z,99275.00
2019-05-18T13:28:44.525Z,99288.00
2019-05-18T13:31:12.526Z,99272.00
2019-05-18T13:33:40.598Z,99272.00
2019-05-18T13:36:08.727Z,99268.00
2019-05-18T13:38:36.845Z,99270.00
2019-05-18T13:41:04.870Z,99268.00
2019-05-18T13:43:32.910Z,99269.00
2019-05-18T13:46:00.913Z,99264.00
2019-05-18T13:48:28.919Z,99262.00
2019-05-18T13:50:57.023Z,99267.00
2019-05-18T13:53:25.185Z,99273.00
2019-05-18T13:55:53.266Z,99264.00
2019-05-18T13:58:21.333Z,99267.00
2019-05-18T14:00:49.566Z,99269.00
2019-05-18T14:03:18.730Z,99259.00
2019-05-18T14:05:46.837Z,99261.00
2019-05-18T14:08:15.958Z,99259.00
2019-05-18T14:10:44.234Z,99260.00
2019-05-18T14:13:12.504Z,99256.00
2019-05-18T14:15:40.551Z,99252.00
2019-05-18T14:18:08.635Z,99254.00
2019-05-18T14:20:36.883Z,99260.00
2019-05-18T14:23:04.975Z,99252.00
2019-05-18T14:25:32.925Z,99259.00
2019-05-18T14:28:01.002Z,99254.00
2019-05-18T14:30:29.134Z,99254.00
2019-05-18T14:32:57.970Z,99242.00
2019-05-18T14:35:26.455Z,99242.00
2019-05-18T14:37:54.752Z,99234.00
2019-05-18T14:40:23.929Z,99244.00
2019-05-18T14:42:52.067Z,99239.00
2019-05-18T14:45:20.369Z,99249.00
2019-05-18T14:47:48.535Z,99237.00
2019-05-18T14:50:19.098Z,99243.00
2019-05-18T14:52:47.128Z,99232.00
2019-05-18T14:55:16.845Z,99239.00
2019-05-18T14:57:45.104Z,99242.00
2019-05-18T15:00:14.005Z,99248.00
2019-05-18T15:02:42.388Z,99233.00
2019-05-18T15:05:12.803Z,99232.00
2019-05-18T15:07:40.844Z,99247.00
2019-05-18T15:10:09.595Z,99237.00
2019-05-18T15:12:38.097Z,99233.00
2019-05-18T15:15:10.682Z,99234.00
2019-05-18T15:17:39.836Z,99232.00
2019-05-18T15:20:08.988Z,99235.00
2019-05-18T15:22:37.031Z,99240.00
2019-05-18T15:25:05.971Z,99244.00
2019-05-18T15:27:35.035Z,99244.00
2019-05-18T15:30:04.171Z,99241.00
2019-05-18T15:32:33.194Z,99237.00
2019-05-18T15:35:01.838Z,99231.00
2019-05-18T15:37:30.461Z,99239.00
2019-05-18T15:39:59.625Z,99237.00
2019-05-18T15:42:27.717Z,99242.00
2019-05-18T15:44:55.873Z,99238.00
2019-05-18T15:47:24.188Z,99245.00
2019-05-18T15:49:52.381Z,99248.00
2019-05-18T15:52:20.501Z,99243.00
2019-05-18T15:54:48.588Z,99243.00
2019-05-18T15:57:16.519Z,99241.00
2019-05-18T15:59:45.101Z,99244.00
2019-05-18T16:02:13.646Z,99232.00
2019-05-18T16:04:42.397Z,99233.00
2019-05-18T16:07:10.621Z,99223.00
2019-05-18T16:09:40.307Z,99219.00
2019-05-18T16:12:08.545Z,99215.00
2019-05-18T16:14:36.715Z,99215.00
2019-05-18T16:17:05.983Z,99214.00
2019-05-18T16:19:34.096Z,99215.00
2019-05-18T16:22:03.077Z,99215.00
2019-05-18T16:24:31.381Z,99233.00
2019-05-18T16:27:01.635Z,99229.00
2019-05-18T16:29:30.344Z,99230.00
2019-05-18T16:31:58.626Z,99231.00
2019-05-18T16:34:26.820Z,99149.00
2019-05-18T16:36:55.563Z,99240.00
2019-05-18T16:39:23.710Z,99235.00
2019-05-18T16:41:52.759Z,99239.00
2019-05-18T16:44:21.717Z,99239.00
2019-05-18T16:46:49.984Z,99239.00
2019-05-18T16:49:18.551Z,99236.00
2019-05-18T16:51:46.995Z,99244.00
2019-05-18T16:54:15.458Z,99245.00
2019-05-18T16:56:44.459Z,99245.00
2019-05-18T16:59:12.513Z,99254.00
2019-05-18T17:01:40.753Z,99252.00
2019-05-18T17:04:09.673Z,99243.00
2019-05-18T17:06:39.902Z,99246.00
2019-05-18T17:09:09.401Z,99247.00
2019-05-18T17:11:37.950Z,99238.00
2019-05-18T17:14:06.394Z,99239.00
2019-05-18T17:16:35.338Z,99239.00
2019-05-18T17:19:04.133Z,99235.00
2019-05-18T17:21:33.403Z,99242.00
2019-05-18T17:24:01.821Z,99227.00
2019-05-18T17:26:30.061Z,99240.00
2019-05-18T17:28:58.946Z,99246.00
2019-05-18T17:31:29.820Z,99248.00
2019-05-18T17:34:00.585Z,99244.00
2019-05-18T17:36:28.619Z,99246.00
2019-05-18T17:38:56.932Z,99249.00
2019-05-18T17:41:25.516Z,99249.00
2019-05-18T17:43:53.522Z,99244.00
2019-05-18T17:46:21.764Z,99250.00
2019-05-18T17:48:50.185Z,99240.00
2019-05-18T17:51:21.308Z,99245.00
2019-05-18T17:53:49.468Z,99241.00
2019-05-18T17:56:18.517Z,99241.00
2019-05-18T17:58:46.694Z,99245.00
2019-05-18T18:01:15.728Z,99244.00
2019-05-18T18:03:43.796Z,99243.00
2019-05-18T18:06:12.552Z,99252.00
2019-05-18T18:17:48.433Z,99257.00
2019-05-18T18:20:18.064Z,99260.00
2019-05-18T18:28:42.760Z,99278.00
2019-05-18T18:31:11.049Z,99293.00
2019-05-18T18:33:39.199Z,99338.00
2019-05-18T18:36:07.235Z,99339.00
2019-05-18T18:38:35.399Z,99353.00
2019-05-18T18:41:03.398Z,99376.00
2019-05-18T18:43:31.555Z,99389.00
2019-05-18T18:45:59.574Z,99414.00
2019-05-18T18:48:27.801Z,99420.00
2019-05-18T18:50:56.137Z,99422.00
2019-05-18T18:53:26.242Z,99425.00
2019-05-18T18:55:54.316Z,99401.00
2019-05-18T18:58:22.520Z,99391.00
2019-05-18T19:00:50.493Z,99400.00
2019-05-18T19:03:19.981Z,99401.00
2019-05-18T19:05:48.040Z,99415.00
2019-05-18T19:08:16.063Z,99423.00
2019-05-18T19:10:44.119Z,99426.00
2019-05-18T19:13:12.222Z,99424.00
2019-05-18T19:15:40.239Z,99436.00
2019-05-18T19:18:09.352Z,99441.00
2019-05-18T19:20:37.317Z,99442.00
2019-05-18T19:23:05.368Z,99447.00
2019-05-18T19:25:33.346Z,99442.00
2019-05-18T19:28:01.454Z,99454.00
2019-05-18T19:30:29.570Z,99458.00
2019-05-18T19:32:57.616Z,99468.00
2019-05-18T19:35:25.611Z,99463.00
2019-05-18T19:37:53.929Z,99473.00
2019-05-18T19:40:21.903Z,99472.00
2019-05-18T19:42:50.407Z,99465.00
2019-05-18T19:45:20.113Z,99468.00
2019-05-18T19:47:49.726Z,99462.00
2019-05-18T19:50:17.827Z,99471.00
2019-05-18T19:52:46.449Z,99469.00
2019-05-18T19:55:14.557Z,99468.00
2019-05-18T19:57:42.524Z,99458.00
2019-05-18T20:00:11.253Z,99441.00
2019-05-18T20:02:39.410Z,99420.00
2019-05-18T20:05:09.183Z,99395.00
2019-05-18T20:07:37.778Z,99398.00
2019-05-18T20:10:09.528Z,99387.00
2019-05-18T20:12:38.875Z,99404.00
2019-05-18T20:15:09.580Z,99404.00
2019-05-18T20:17:38.023Z,99403.00
2019-05-18T20:20:06.586Z,99401.00
2019-05-18T20:22:34.566Z,99415.00
2019-05-18T20:25:02.960Z,99413.00
2019-05-18T20:27:30.930Z,99427.00
2019-05-18T20:29:59.042Z,99437.00
2019-05-18T20:32:27.112Z,99444.00
2019-05-18T20:34:55.285Z,99444.00
2019-05-18T20:37:23.343Z,99450.00
2019-05-18T20:39:51.818Z,99441.00
2019-05-18T20:42:19.843Z,99439.00
2019-05-18T20:44:47.925Z,99437.00
2019-05-18T20:47:15.983Z,99425.00
2019-05-18T20:49:44.210Z,99414.00
2019-05-18T20:52:15.460Z,99413.00
2019-05-18T20:54:43.504Z,99408.00
2019-05-18T20:57:11.480Z,99399.00
2019-05-18T20:59:39.668Z,99406.00
2019-05-18T21:02:12.654Z,99401.00
2019-05-18T21:04:40.801Z,99401.00
2019-05-18T21:07:08.890Z,99390.00
2019-05-18T21:09:37.131Z,99390.00
2019-05-18T21:12:05.211Z,99395.00
2019-05-18T21:14:33.263Z,99400.00
2019-05-18T21:17:01.427Z,99400.00
2019-05-18T21:19:29.841Z,99400.00
2019-05-18T21:21:57.854Z,99393.00
2019-05-18T21:24:25.945Z,99393.00
2019-05-18T21:26:53.977Z,99389.00
2019-05-18T21:29:22.031Z,99388.00
2019-05-18T21:31:50.331Z,99392.00
2019-05-18T21:34:18.978Z,99397.00
2019-05-18T21:36:47.429Z,99400.00
2019-05-18T21:39:15.514Z,99411.00
2019-05-18T21:41:43.598Z,99422.00
2019-05-18T21:44:16.871Z,99440.00
2019-05-18T21:46:44.935Z,99451.00
2019-05-18T21:49:13.022Z,99452.00
2019-05-18T21:51:42.757Z,99442.00
2019-05-18T21:54:10.989Z,99456.00
2019-05-18T21:56:39.448Z,99452.00
2019-05-18T21:59:11.644Z,99462.00
2019-05-18T22:01:39.593Z,99454.00
2019-05-18T22:04:08.374Z,99477.00
2019-05-18T22:06:37.346Z,99510.00
2019-05-18T22:09:06.718Z,99494.00
2019-05-18T22:11:35.095Z,99500.00
2019-05-18T22:14:05.084Z,99485.00
2019-05-18T22:16:33.101Z,99486.00
2019-05-18T22:19:03.249Z,99482.00
2019-05-18T22:21:32.047Z,99483.00
2019-05-18T22:24:00.460Z,99486.00
2019-05-18T22:26:29.016Z,99486.00
2019-05-18T22:28:58.094Z,99486.00
2019-05-18T22:31:35.262Z,99483.00
2019-05-18T22:34:04.243Z,99481.00
2019-05-18T22:36:34.428Z,99485.00
2019-05-18T22:39:05.656Z,99483.00
2019-05-18T22:41:34.353Z,99477.00
2019-05-18T22:44:02.666Z,99467.00
2019-05-18T22:46:30.798Z,99474.00
2019-05-18T22:48:58.908Z,99465.00
2019-05-18T22:51:26.969Z,99458.00
2019-05-18T22:53:55.920Z,99464.00
2019-05-18T22:56:24.238Z,99468.00
2019-05-18T22:58:52.641Z,99457.00
2019-05-18T23:01:22.803Z,99458.00
2019-05-18T23:03:51.911Z,99460.00
2019-05-18T23:06:20.832Z,99455.00
2019-05-18T23:08:48.843Z,99460.00
2019-05-18T23:11:17.032Z,99468.00
2019-05-18T23:13:45.638Z,99455.00
2019-05-18T23:16:13.760Z,99448.00
2019-05-18T23:18:56.479Z,99443.00
2019-05-18T23:21:15.541Z,99446.00
2019-05-18T23:23:43.798Z,99439.00
2019-05-18T23:26:13.916Z,99425.00
2019-05-18T23:28:44.847Z,99423.00
2019-05-18T23:31:14.080Z,99422.00
2019-05-18T23:33:42.285Z,99415.00
2019-05-18T23:36:11.368Z,99397.00
2019-05-18T23:38:39.446Z,99382.00
2019-05-18T23:41:07.390Z,99370.00
2019-05-18T23:43:35.358Z,99351.00
2019-05-18T23:46:03.385Z,99348.00
2019-05-18T23:48:31.377Z,99341.00
2019-05-18T23:50:59.555Z,99350.00
2019-05-18T23:53:27.456Z,99355.00
2019-05-18T23:55:55.394Z,99374.00
2019-05-18T23:58:23.310Z,99365.00
